Time;durP1;ratioP1;P1;durP2;ratioP2;P2;SDS_P1;SDS_P2;PMS_P1;PMS_P2;Temp;Humidity;BMP_temperature;BMP_pressure;BME280_temperature;BME280_humidity;BME280_pressure;Samples;Min_cycle;Max_cycle;Signal;HPM_P1;HPM_P2
2022/07/08 00:01:42;;;;;;;19.05;3.17;;;16.00;99.90;;;;;;4989790;28;20033;-75
2022/07/08 00:04:08;;;;;;;14.93;2.70;;;15.90;99.90;;;;;;4990739;28;20032;-75
2022/07/08 00:06:34;;;;;;;12.55;2.40;;;15.90;99.90;;;;;;4996511;28;20760;-75
2022/07/08 00:08:59;;;;;;;21.20;3.80;;;15.90;99.90;;;;;;4987015;28;20041;-75
2022/07/08 00:11:25;;;;;;;15.63;3.10;;;15.90;99.90;;;;;;4991314;28;20109;-75
2022/07/08 00:13:51;;;;;;;19.00;3.15;;;15.90;99.90;;;;;;4997686;28;20034;-75
2022/07/08 00:16:16;;;;;;;13.13;2.58;;;15.90;99.90;;;;;;4994929;28;20405;-76
2022/07/08 00:18:42;;;;;;;16.23;2.58;;;15.90;99.90;;;;;;4994490;28;20030;-75
2022/07/08 00:21:08;;;;;;;14.40;2.97;;;15.80;99.90;;;;;;4991714;28;20036;-76
2022/07/08 00:23:34;;;;;;;10.07;2.45;;;15.80;99.90;;;;;;4994391;28;20857;-75
2022/07/08 00:26:00;;;;;;;19.15;3.28;;;15.80;99.90;;;;;;4992525;28;20077;-75
2022/07/08 00:28:25;;;;;;;16.83;3.72;;;15.80;99.90;;;;;;4993713;28;20038;-75
2022/07/08 00:30:51;;;;;;;17.52;3.03;;;15.70;99.90;;;;;;4998709;28;20033;-76
2022/07/08 00:33:17;;;;;;;16.92;2.85;;;15.80;99.90;;;;;;4998776;28;20461;-75
2022/07/08 00:35:43;;;;;;;11.43;2.35;;;15.80;99.90;;;;;;4993892;28;20030;-75
2022/07/08 00:38:08;;;;;;;18.20;2.85;;;15.70;99.90;;;;;;4996469;28;20445;-76
2022/07/08 00:40:35;;;;;;;18.27;3.65;;;15.70;99.90;;;;;;4995690;28;20040;-75
2022/07/08 00:43:01;;;;;;;15.45;2.97;;;15.70;99.90;;;;;;4994237;28;20028;-76
2022/07/08 00:45:27;;;;;;;24.77;3.22;;;15.60;99.90;;;;;;4999067;28;20034;-75
2022/07/08 00:47:52;;;;;;;12.43;3.00;;;15.60;99.90;;;;;;4991671;28;20030;-76
2022/07/08 00:50:18;;;;;;;13.07;2.60;;;15.50;99.90;;;;;;5002501;28;20487;-75
2022/07/08 00:52:45;;;;;;;12.85;3.17;;;15.50;99.90;;;;;;5014072;28;20037;-75
2022/07/08 00:55:11;;;;;;;22.02;3.55;;;15.40;99.90;;;;;;5015532;28;20039;-74
2022/07/08 00:57:38;;;;;;;15.30;3.03;;;15.40;99.90;;;;;;5015263;28;20041;-75
2022/07/08 01:00:05;;;;;;;9.95;3.10;;;15.50;99.90;;;;;;5016887;28;20038;-75
2022/07/08 01:02:31;;;;;;;19.27;2.88;;;15.50;99.90;;;;;;5001323;28;20030;-76
2022/07/08 01:04:56;;;;;;;17.23;2.85;;;15.50;99.90;;;;;;4991460;28;20061;-75
2022/07/08 01:07:23;;;;;;;10.43;2.33;;;15.50;99.90;;;;;;4976111;28;21451;-75
2022/07/08 01:09:50;;;;;;;14.75;2.40;;;15.60;99.90;;;;;;4976937;28;20567;-75
2022/07/08 01:12:16;;;;;;;8.30;2.40;;;15.60;99.90;;;;;;4989746;28;20722;-75
2022/07/08 01:14:43;;;;;;;13.43;2.65;;;15.60;99.90;;;;;;4993580;28;20029;-76
2022/07/08 01:17:09;;;;;;;13.50;2.50;;;15.50;99.90;;;;;;4992984;28;20038;-73
2022/07/08 01:19:34;;;;;;;17.25;2.90;;;15.60;99.90;;;;;;4997620;28;20411;-74
2022/07/08 01:22:00;;;;;;;12.65;2.70;;;15.50;99.90;;;;;;4976524;28;20029;-74
2022/07/08 01:24:26;;;;;;;13.00;3.03;;;15.50;99.90;;;;;;4995269;28;20034;-76
2022/07/08 01:26:52;;;;;;;12.45;2.45;;;15.50;99.90;;;;;;4997742;28;20036;-75
2022/07/08 01:29:18;;;;;;;12.50;2.20;;;15.50;99.90;;;;;;4998111;28;20026;-75
2022/07/08 01:31:43;;;;;;;13.05;2.67;;;15.50;99.90;;;;;;4995460;28;20080;-74
2022/07/08 01:34:10;;;;;;;17.00;2.47;;;15.50;99.90;;;;;;4992911;28;20034;-76
2022/07/08 01:36:36;;;;;;;12.48;2.83;;;15.50;99.90;;;;;;5000141;28;20030;-75
2022/07/08 01:39:02;;;;;;;14.52;2.25;;;15.50;99.90;;;;;;4978213;28;20453;-75
2022/07/08 01:41:27;;;;;;;16.13;2.10;;;15.50;99.90;;;;;;4995630;28;20022;-74
2022/07/08 01:43:53;;;;;;;20.02;3.17;;;15.50;99.90;;;;;;4989916;28;20467;-74
2022/07/08 01:46:19;;;;;;;12.30;1.80;;;15.50;99.90;;;;;;4998150;28;20028;-75
2022/07/08 01:48:45;;;;;;;12.45;2.55;;;15.50;99.90;;;;;;4992050;28;20036;-74
2022/07/08 01:51:10;;;;;;;12.80;2.15;;;15.50;99.90;;;;;;4993320;28;20453;-75
2022/07/08 01:53:36;;;;;;;19.08;2.50;;;15.50;99.90;;;;;;4994062;28;20068;-75
2022/07/08 01:56:02;;;;;;;13.15;2.65;;;15.50;99.90;;;;;;4998202;28;20033;-75
2022/07/08 01:58:28;;;;;;;9.98;2.58;;;15.50;99.90;;;;;;4998360;28;20033;-75
2022/07/08 02:00:53;;;;;;;10.55;2.28;;;15.50;99.90;;;;;;4998715;28;20036;-74
2022/07/08 02:03:19;;;;;;;13.02;2.70;;;15.50;99.90;;;;;;4998645;28;20030;-75
2022/07/08 02:05:45;;;;;;;11.02;2.72;;;15.50;99.90;;;;;;4995093;28;20071;-74
2022/07/08 02:08:10;;;;;;;12.23;2.85;;;15.50;99.90;;;;;;4996665;28;20113;-74
2022/07/08 02:13:22;;;;;;;10.32;2.08;;;15.50;99.90;;;;;;4985964;28;20064;-74
2022/07/08 02:15:48;;;;;;;15.85;2.22;;;15.50;99.90;;;;;;5005744;28;20026;-75
2022/07/08 02:18:14;;;;;;;11.75;2.90;;;15.50;99.90;;;;;;5000849;28;20049;-75
2022/07/08 02:20:40;;;;;;;15.57;3.03;;;15.50;99.90;;;;;;4994173;28;20030;-75
2022/07/08 02:23:06;;;;;;;12.95;2.05;;;15.50;99.90;;;;;;5018591;28;20031;-74
2022/07/08 02:25:31;;;;;;;14.00;2.78;;;15.50;99.90;;;;;;4978434;28;20027;-75
2022/07/08 02:27:57;;;;;;;11.50;2.15;;;15.50;99.90;;;;;;4999608;28;20041;-76
2022/07/08 02:30:23;;;;;;;15.20;2.40;;;15.50;99.90;;;;;;5000001;28;20087;-75
2022/07/08 02:32:49;;;;;;;10.52;2.20;;;15.50;99.90;;;;;;4999619;28;20148;-75
2022/07/08 02:35:14;;;;;;;9.20;2.15;;;15.50;99.90;;;;;;4996737;28;20444;-75
2022/07/08 02:37:40;;;;;;;11.38;2.20;;;15.50;99.90;;;;;;4998140;28;20026;-75
2022/07/08 02:40:07;;;;;;;11.40;2.35;;;15.50;99.90;;;;;;4993744;28;20382;-74
2022/07/08 02:42:32;;;;;;;11.27;2.05;;;15.50;99.90;;;;;;4998918;28;20037;-75
2022/07/08 02:44:58;;;;;;;11.77;1.70;;;15.40;99.90;;;;;;4999926;28;20030;-75
2022/07/08 02:47:24;;;;;;;10.82;2.53;;;15.40;99.90;;;;;;5002795;28;20026;-75
2022/07/08 02:49:49;;;;;;;18.15;2.70;;;15.40;99.90;;;;;;4998815;28;20022;-75
2022/07/08 02:52:15;;;;;;;9.27;2.75;;;15.50;99.90;;;;;;4999016;28;20026;-75
2022/07/08 02:54:41;;;;;;;16.13;2.72;;;15.50;99.90;;;;;;5000976;28;20026;-76
2022/07/08 02:57:06;;;;;;;10.18;2.13;;;15.40;99.90;;;;;;4997519;28;20054;-75
2022/07/08 02:59:32;;;;;;;9.60;1.85;;;15.50;99.90;;;;;;4997533;28;20557;-75
2022/07/08 03:01:58;;;;;;;13.98;3.38;;;15.40;99.90;;;;;;4997399;28;20030;-76
2022/07/08 03:04:23;;;;;;;10.75;2.40;;;15.40;99.90;;;;;;4993558;28;20030;-75
2022/07/08 03:06:49;;;;;;;8.82;2.03;;;15.40;99.90;;;;;;4997314;28;20019;-75
2022/07/08 03:09:15;;;;;;;10.43;2.30;;;15.40;99.90;;;;;;4996206;28;20038;-76
2022/07/08 03:11:41;;;;;;;10.95;2.10;;;15.40;99.90;;;;;;4994746;28;20029;-76
2022/07/08 03:14:06;;;;;;;19.20;1.92;;;15.40;99.90;;;;;;4996622;28;20985;-75
2022/07/08 03:16:33;;;;;;;12.35;2.10;;;15.40;99.90;;;;;;5001231;28;20049;-76
2022/07/08 03:18:59;;;;;;;13.23;1.90;;;15.40;99.90;;;;;;4995839;28;20045;-75
2022/07/08 03:21:24;;;;;;;12.25;2.45;;;15.40;99.90;;;;;;5018159;28;20101;-75
2022/07/08 03:23:50;;;;;;;10.30;1.80;;;15.40;99.90;;;;;;4998189;28;20115;-76
2022/07/08 03:26:15;;;;;;;9.20;2.55;;;15.30;99.90;;;;;;4996937;28;20518;-75
2022/07/08 03:28:41;;;;;;;14.05;2.78;;;15.30;99.90;;;;;;4999306;28;20077;-75
2022/07/08 03:31:07;;;;;;;8.77;2.00;;;15.40;99.90;;;;;;5014978;28;20117;-75
2022/07/08 03:33:33;;;;;;;13.40;3.30;;;15.40;99.90;;;;;;5005357;28;20044;-75
2022/07/08 03:35:59;;;;;;;13.98;2.33;;;15.30;99.90;;;;;;4998414;28;20371;-74
2022/07/08 03:38:25;;;;;;;7.07;1.60;;;15.30;99.90;;;;;;4996958;28;20029;-74
2022/07/08 03:43:35;;;;;;;12.27;2.38;;;15.30;99.90;;;;;;4997998;28;20091;-75
2022/07/08 03:46:01;;;;;;;11.02;2.60;;;15.30;99.90;;;;;;4998928;28;20557;-76
2022/07/08 03:48:27;;;;;;;17.98;2.53;;;15.30;99.90;;;;;;5000547;28;20026;-76
2022/07/08 03:50:52;;;;;;;11.68;2.92;;;15.40;99.90;;;;;;4982344;28;20030;-76
2022/07/08 03:53:18;;;;;;;7.50;1.60;;;15.30;99.90;;;;;;4994111;28;20091;-78
2022/07/08 03:55:44;;;;;;;12.43;2.30;;;15.30;99.90;;;;;;4997315;28;20285;-75
2022/07/08 03:58:09;;;;;;;18.98;2.70;;;15.30;99.90;;;;;;4996366;28;20038;-76
2022/07/08 04:00:35;;;;;;;11.23;2.33;;;15.30;99.90;;;;;;4994426;28;20648;-76
2022/07/08 04:03:01;;;;;;;10.82;2.17;;;15.30;99.90;;;;;;4993148;28;20402;-76
2022/07/08 04:05:26;;;;;;;9.73;2.00;;;15.30;99.90;;;;;;4995910;28;20035;-76
2022/07/08 04:07:52;;;;;;;15.23;2.03;;;15.30;99.90;;;;;;4980674;28;20026;-75
2022/07/08 04:10:18;;;;;;;13.02;2.28;;;15.40;99.90;;;;;;4997298;28;20124;-75
2022/07/08 04:12:43;;;;;;;9.07;2.55;;;15.30;99.90;;;;;;4995471;28;20042;-75
2022/07/08 04:15:09;;;;;;;14.20;2.28;;;15.30;99.90;;;;;;4998535;28;20045;-76
2022/07/08 04:17:35;;;;;;;7.32;2.45;;;15.40;99.90;;;;;;4998572;28;20034;-75
2022/07/08 04:20:01;;;;;;;12.93;2.35;;;15.40;99.90;;;;;;4983378;28;20030;-77
2022/07/08 04:22:27;;;;;;;17.08;2.53;;;15.50;99.90;;;;;;4997212;28;20030;-76
2022/07/08 04:24:53;;;;;;;15.93;3.17;;;15.50;99.90;;;;;;4997384;28;20560;-75
2022/07/08 04:27:18;;;;;;;17.17;3.13;;;15.50;99.90;;;;;;4994291;28;20022;-75
2022/07/08 04:29:44;;;;;;;11.20;2.50;;;15.50;99.90;;;;;;4983860;28;20038;-75
2022/07/08 04:32:10;;;;;;;10.27;2.40;;;15.60;99.90;;;;;;4980567;28;20116;-75
2022/07/08 04:34:36;;;;;;;14.20;2.47;;;15.60;99.90;;;;;;4980038;28;20049;-74
2022/07/08 04:37:02;;;;;;;10.57;3.00;;;15.70;99.90;;;;;;4996616;28;20029;-75
2022/07/08 04:39:27;;;;;;;12.73;2.90;;;15.70;99.90;;;;;;4999883;28;20105;-76
2022/07/08 04:41:53;;;;;;;10.52;2.72;;;15.80;99.90;;;;;;4995410;28;20061;-76
2022/07/08 04:44:19;;;;;;;9.82;2.50;;;15.80;99.90;;;;;;4997299;28;20041;-74
2022/07/08 04:46:44;;;;;;;13.07;2.50;;;15.90;99.90;;;;;;4996254;28;20477;-75
2022/07/08 04:49:10;;;;;;;12.35;2.47;;;15.90;99.90;;;;;;4995483;28;20026;-77
2022/07/08 04:51:36;;;;;;;13.32;2.80;;;16.00;99.90;;;;;;4997878;28;20030;-76
2022/07/08 04:54:02;;;;;;;12.82;2.92;;;16.00;99.90;;;;;;4998351;28;20029;-74
2022/07/08 04:56:28;;;;;;;10.48;2.50;;;16.00;99.90;;;;;;4993403;28;20046;-75
2022/07/08 04:58:53;;;;;;;19.60;3.10;;;16.10;99.90;;;;;;4997384;28;20033;-75
2022/07/08 05:01:19;;;;;;;14.80;2.47;;;16.10;99.90;;;;;;4992661;28;20494;-75
2022/07/08 05:03:45;;;;;;;14.63;2.45;;;16.00;99.90;;;;;;4994747;28;20112;-76
2022/07/08 05:06:11;;;;;;;11.05;1.85;;;16.10;99.90;;;;;;4996288;28;20026;-75
2022/07/08 05:08:38;;;;;;;11.48;2.17;;;16.10;99.90;;;;;;4995511;28;20064;-76
2022/07/08 05:11:04;;;;;;;17.10;2.70;;;16.10;99.90;;;;;;4995870;28;20097;-76
2022/07/08 05:13:29;;;;;;;10.15;1.98;;;16.10;99.90;;;;;;4994730;28;20046;-75
2022/07/08 05:15:55;;;;;;;9.30;2.33;;;16.20;99.90;;;;;;4993208;28;21042;-75
2022/07/08 05:18:21;;;;;;;13.95;2.47;;;16.20;99.90;;;;;;4997898;28;20026;-76
2022/07/08 05:20:46;;;;;;;10.75;2.33;;;16.10;99.90;;;;;;4998810;28;20032;-76
2022/07/08 05:23:12;;;;;;;16.13;2.83;;;16.10;99.90;;;;;;4994026;28;20018;-76
2022/07/08 05:25:38;;;;;;;10.63;2.22;;;16.00;99.90;;;;;;4997732;28;20041;-75
2022/07/08 05:28:04;;;;;;;11.25;2.08;;;16.00;99.90;;;;;;4997938;28;20057;-77
2022/07/08 05:30:29;;;;;;;8.90;1.92;;;16.00;99.90;;;;;;4993575;28;20033;-74
2022/07/08 05:32:55;;;;;;;10.82;2.38;;;16.70;99.90;;;;;;4996806;28;20026;-76
2022/07/08 05:35:21;;;;;;;8.45;2.05;;;16.80;99.90;;;;;;5004785;28;20037;-76
2022/07/08 05:37:46;;;;;;;15.88;2.70;;;16.60;99.90;;;;;;4993443;28;20061;-78
2022/07/08 05:40:12;;;;;;;13.32;2.53;;;16.60;99.90;;;;;;5000064;28;20029;-76
2022/07/08 05:42:39;;;;;;;11.50;2.40;;;16.50;99.90;;;;;;4981204;28;20434;-76
2022/07/08 05:45:05;;;;;;;29.85;3.65;;;16.50;99.90;;;;;;4996145;28;20052;-76
2022/07/08 05:47:31;;;;;;;10.63;2.08;;;16.50;99.90;;;;;;4996645;28;20029;-76
2022/07/08 05:49:57;;;;;;;13.70;2.75;;;16.40;99.90;;;;;;4995194;28;20030;-75
2022/07/08 05:52:23;;;;;;;11.13;2.42;;;16.30;99.90;;;;;;4989885;28;20018;-76
2022/07/08 05:54:49;;;;;;;8.90;1.98;;;16.20;99.90;;;;;;4992043;28;20029;-74
2022/07/08 05:57:16;;;;;;;8.02;2.03;;;16.10;99.90;;;;;;4995630;28;20244;-76
2022/07/08 05:59:42;;;;;;;9.07;1.98;;;16.20;99.90;;;;;;4992852;28;20030;-75
2022/07/08 06:02:08;;;;;;;11.57;1.90;;;16.10;99.90;;;;;;4994772;28;20030;-75
2022/07/08 06:04:34;;;;;;;10.05;1.80;;;16.20;99.90;;;;;;4977464;28;20530;-77
2022/07/08 06:07:00;;;;;;;8.27;2.17;;;16.20;99.90;;;;;;4995236;28;20031;-76
2022/07/08 06:09:25;;;;;;;9.90;2.22;;;16.20;99.90;;;;;;4994385;28;20041;-75
2022/07/08 06:11:51;;;;;;;13.30;2.88;;;16.20;99.90;;;;;;4994774;28;20528;-76
2022/07/08 06:14:17;;;;;;;16.20;2.45;;;16.30;99.90;;;;;;4998733;28;20034;-76
2022/07/08 06:16:48;;;;;;;10.38;2.13;;;16.30;99.90;;;;;;4982505;28;20031;-75
2022/07/08 06:19:14;;;;;;;12.65;2.17;;;16.30;99.90;;;;;;4985723;28;20096;-76
2022/07/08 06:21:40;;;;;;;8.38;2.30;;;16.30;99.90;;;;;;4982503;28;20030;-76
2022/07/08 06:24:06;;;;;;;13.75;2.63;;;16.20;99.90;;;;;;4974461;28;20027;-75
2022/07/08 06:26:32;;;;;;;11.02;2.65;;;16.20;99.90;;;;;;4976365;28;20040;-76
2022/07/08 06:28:59;;;;;;;11.65;2.67;;;16.40;99.90;;;;;;4970427;28;20124;-75
2022/07/08 06:31:25;;;;;;;11.88;2.75;;;16.40;99.90;;;;;;4970499;28;20082;-76
2022/07/08 06:33:56;;;;;;;12.73;2.40;;;16.50;99.90;;;;;;4977572;28;20030;-76
2022/07/08 06:36:26;;;;;;;10.98;2.05;;;16.60;99.90;;;;;;4970064;28;20506;-77
2022/07/08 06:38:52;;;;;;;14.93;2.67;;;16.70;99.90;;;;;;4985919;28;20041;-76
2022/07/08 06:41:18;;;;;;;15.90;2.33;;;16.80;99.90;;;;;;4972652;28;20034;-74
2022/07/08 06:43:45;;;;;;;14.18;2.90;;;16.80;99.90;;;;;;4977181;28;20601;-74
2022/07/08 06:46:11;;;;;;;14.13;2.67;;;16.70;99.90;;;;;;4973065;28;20080;-73
2022/07/08 06:48:37;;;;;;;9.55;2.67;;;16.70;99.90;;;;;;4967060;28;20626;-74
2022/07/08 06:51:03;;;;;;;16.10;2.40;;;16.60;99.90;;;;;;5000354;28;20030;-74
2022/07/08 06:54:34;;;;;;;12.13;2.20;;;16.50;99.90;;;;;;5001421;28;20083;-75
2022/07/08 06:56:16;;;;;;;11.60;2.20;;;16.50;99.90;;;;;;4993826;28;20038;-74
2022/07/08 06:58:43;;;;;;;12.50;2.20;;;16.50;99.90;;;;;;4989020;28;20022;-74
2022/07/08 07:01:10;;;;;;;8.10;2.03;;;16.60;99.90;;;;;;4992319;28;20757;-75
2022/07/08 07:03:37;;;;;;;10.38;2.05;;;16.70;99.90;;;;;;5000414;28;20044;-74
2022/07/08 07:06:03;;;;;;;12.35;2.08;;;16.90;99.90;;;;;;4979393;28;20049;-75
2022/07/08 07:08:30;;;;;;;12.57;2.20;;;17.00;99.90;;;;;;4994680;28;20181;-75
2022/07/08 07:10:56;;;;;;;12.65;2.53;;;17.20;99.90;;;;;;4999384;28;20022;-76
2022/07/08 07:13:22;;;;;;;12.15;2.05;;;17.20;99.90;;;;;;4995427;28;20030;-74
2022/07/08 07:15:47;;;;;;;10.13;2.60;;;17.30;99.90;;;;;;4997319;28;20088;-76
2022/07/08 07:18:14;;;;;;;9.10;1.88;;;17.30;99.90;;;;;;4996119;28;20036;-75
2022/07/08 07:20:40;;;;;;;7.43;1.80;;;17.30;99.90;;;;;;4994071;28;20117;-75
2022/07/08 07:23:05;;;;;;;9.40;1.90;;;17.30;99.90;;;;;;4992639;28;20136;-74
2022/07/08 07:25:31;;;;;;;8.85;1.83;;;17.30;99.90;;;;;;4990031;28;20094;-73
2022/07/08 07:27:57;;;;;;;9.73;2.08;;;17.20;99.90;;;;;;4995354;28;20064;-74
2022/07/08 07:30:24;;;;;;;7.75;1.60;;;17.20;99.90;;;;;;4981805;28;20033;-74
2022/07/08 07:32:51;;;;;;;13.27;2.05;;;17.10;99.90;;;;;;5003064;28;20027;-75
2022/07/08 07:35:17;;;;;;;11.40;2.30;;;17.20;99.90;;;;;;4996219;28;20037;-73
2022/07/08 07:37:42;;;;;;;13.00;2.65;;;17.20;99.90;;;;;;4999547;28;20041;-72
2022/07/08 07:40:08;;;;;;;12.73;2.35;;;17.20;99.90;;;;;;5007449;28;20030;-73
2022/07/08 07:42:34;;;;;;;14.98;2.40;;;17.20;99.90;;;;;;5009932;28;20163;-74
2022/07/08 07:45:03;;;;;;;9.48;2.45;;;17.10;99.90;;;;;;5006463;28;20018;-75
2022/07/08 07:47:28;;;;;;;12.35;1.83;;;17.20;99.90;;;;;;4979834;28;20054;-76
2022/07/08 07:49:54;;;;;;;9.40;2.20;;;17.00;99.90;;;;;;4994583;28;20056;-75
2022/07/08 07:52:20;;;;;;;13.57;2.58;;;17.00;99.90;;;;;;4997031;28;20081;-75
2022/07/08 07:54:45;;;;;;;13.52;2.42;;;17.00;99.90;;;;;;4994216;28;20113;-76
2022/07/08 07:57:11;;;;;;;16.30;2.55;;;17.00;99.90;;;;;;5000388;28;20550;-75
2022/07/08 07:59:37;;;;;;;10.65;2.08;;;17.00;99.90;;;;;;4993223;28;20073;-75
2022/07/08 08:02:03;;;;;;;11.52;2.50;;;16.90;99.90;;;;;;4990119;28;20022;-76
2022/07/08 08:04:29;;;;;;;11.35;2.60;;;16.90;99.90;;;;;;4991922;28;20405;-75
2022/07/08 08:06:54;;;;;;;15.30;2.80;;;16.90;99.90;;;;;;4997305;28;20030;-75
2022/07/08 08:09:20;;;;;;;12.20;2.60;;;16.80;99.90;;;;;;4995060;28;20030;-75
2022/07/08 08:11:46;;;;;;;14.05;2.83;;;16.90;99.90;;;;;;4997972;28;20100;-75
2022/07/08 08:14:12;;;;;;;16.27;2.83;;;16.90;99.90;;;;;;4994018;28;20022;-74
2022/07/08 08:16:38;;;;;;;10.90;2.20;;;16.90;99.90;;;;;;4978113;28;20054;-76
2022/07/08 08:19:04;;;;;;;14.38;2.55;;;16.90;99.90;;;;;;4997849;28;20034;-76
2022/07/08 08:21:32;;;;;;;18.67;2.95;;;16.90;99.90;;;;;;4997717;28;20049;-75
2022/07/08 08:23:58;;;;;;;12.55;3.10;;;16.90;99.90;;;;;;4993172;28;20517;-75
2022/07/08 08:26:23;;;;;;;17.10;3.88;;;16.80;99.90;;;;;;4996319;28;20049;-75
2022/07/08 08:28:50;;;;;;;13.38;3.28;;;16.70;99.90;;;;;;4993231;28;20032;-74
2022/07/08 08:31:16;;;;;;;11.90;3.17;;;16.70;99.90;;;;;;4994837;28;20061;-75
2022/07/08 08:33:42;;;;;;;8.15;2.67;;;16.60;99.90;;;;;;4995956;28;20440;-75
2022/07/08 08:36:08;;;;;;;11.70;2.80;;;16.60;99.90;;;;;;4992929;28;20026;-75
2022/07/08 08:38:34;;;;;;;14.52;2.80;;;16.60;99.90;;;;;;4993337;28;20069;-75
2022/07/08 08:41:01;;;;;;;13.05;3.08;;;16.60;99.90;;;;;;4994854;28;20046;-75
2022/07/08 08:43:27;;;;;;;17.40;3.30;;;16.60;99.90;;;;;;4988638;28;20030;-74
2022/07/08 08:45:54;;;;;;;16.42;3.53;;;16.60;99.90;;;;;;4989773;28;20393;-74
2022/07/08 08:48:24;;;;;;;10.15;3.00;;;16.70;99.90;;;;;;4992539;28;20558;-75
2022/07/08 08:50:55;;;;;;;14.18;3.17;;;16.70;99.90;;;;;;4994721;28;20030;-74
2022/07/08 08:53:29;;;;;;;9.73;3.25;;;16.60;99.90;;;;;;4997383;28;20018;-75
2022/07/08 08:55:59;;;;;;;12.38;3.63;;;16.60;99.90;;;;;;4988765;28;20026;-74
2022/07/08 08:58:25;;;;;;;9.87;2.60;;;16.70;99.90;;;;;;4990991;28;20431;-74
2022/07/08 09:00:50;;;;;;;13.88;3.13;;;16.70;99.90;;;;;;4973857;28;20018;-74
2022/07/08 09:03:16;;;;;;;11.38;3.22;;;16.80;99.90;;;;;;4991704;28;20065;-74
2022/07/08 09:05:43;;;;;;;13.82;2.58;;;16.80;99.90;;;;;;4973018;28;20029;-75
2022/07/08 09:08:09;;;;;;;9.65;3.08;;;16.80;99.90;;;;;;4994979;28;20378;-75
2022/07/08 09:10:35;;;;;;;12.27;3.20;;;17.00;99.90;;;;;;4993074;28;20031;-75
2022/07/08 09:13:12;;;;;;;10.38;2.60;;;17.20;99.90;;;;;;4995906;28;20069;-74
2022/07/08 09:15:46;;;;;;;13.32;3.35;;;17.40;99.90;;;;;;5012237;28;20038;-75
2022/07/08 09:18:20;;;;;;;9.40;2.50;;;17.40;99.90;;;;;;4992782;28;20168;-75
2022/07/08 09:20:50;;;;;;;7.93;2.50;;;17.40;99.90;;;;;;4989786;28;20040;-75
2022/07/08 09:23:24;;;;;;;10.27;2.87;;;17.40;99.90;;;;;;4992570;28;20038;-75
2022/07/08 09:25:56;;;;;;;9.85;2.88;;;17.40;99.90;;;;;;4992192;28;20030;-75
2022/07/08 09:28:35;;;;;;;10.40;2.47;;;17.50;99.90;;;;;;4994081;28;20014;-74
2022/07/08 09:31:09;;;;;;;10.13;2.90;;;17.40;99.90;;;;;;4990641;28;20026;-74
2022/07/08 09:33:35;;;;;;;11.15;2.38;;;17.40;99.90;;;;;;4993932;28;20030;-73
2022/07/08 09:36:03;;;;;;;6.30;2.17;;;17.50;99.90;;;;;;4991764;28;20042;-74
2022/07/08 09:38:32;;;;;;;6.78;2.65;;;17.50;99.90;;;;;;4986916;28;20030;-75
2022/07/08 09:41:02;;;;;;;188.00;131.48;;;17.50;99.90;;;;;;4992643;28;20104;-75
2022/07/08 09:43:28;;;;;;;12.57;7.13;;;17.50;99.90;;;;;;4994873;28;20029;-75
2022/07/08 09:45:54;;;;;;;442.95;394.08;;;17.50;99.90;;;;;;4992782;28;20035;-75
2022/07/08 09:48:24;;;;;;;18.90;13.32;;;17.60;99.90;;;;;;4993531;28;20018;-74
2022/07/08 09:50:50;;;;;;;6.05;2.50;;;17.70;99.90;;;;;;4994315;28;20097;-74
2022/07/08 09:53:25;;;;;;;3.42;1.30;;;17.80;99.90;;;;;;4996074;28;20033;-74
2022/07/08 09:55:53;;;;;;;2.97;1.30;;;17.90;99.90;;;;;;4989277;28;20054;-74
2022/07/08 09:58:24;;;;;;;2.42;1.10;;;17.90;99.90;;;;;;4994022;28;20100;-74
2022/07/08 10:00:51;;;;;;;2.70;1.40;;;18.00;99.90;;;;;;4977517;28;20042;-75
2022/07/08 10:03:18;;;;;;;2.65;1.38;;;18.00;99.90;;;;;;4990036;28;20516;-73
2022/07/08 10:05:45;;;;;;;4.28;1.33;;;18.00;99.90;;;;;;4991727;28;20034;-74
2022/07/08 10:08:11;;;;;;;3.15;1.02;;;17.90;99.90;;;;;;4990889;28;20026;-73
2022/07/08 10:10:40;;;;;;;2.08;1.02;;;17.90;99.90;;;;;;4990100;28;20031;-75
2022/07/08 10:13:06;;;;;;;2.90;1.00;;;17.90;99.90;;;;;;4993890;28;20064;-76
2022/07/08 10:15:34;;;;;;;4.68;1.50;;;17.80;99.90;;;;;;4987737;28;20439;-76
2022/07/08 10:18:22;;;;;;;4.57;1.50;;;17.80;99.90;;;;;;5000609;28;20034;-75
2022/07/08 10:20:52;;;;;;;3.08;1.40;;;17.80;99.90;;;;;;5001388;28;20119;-76
2022/07/08 10:23:38;;;;;;;3.45;1.65;;;17.80;99.90;;;;;;5000714;28;20033;-76
2022/07/08 10:26:06;;;;;;;3.28;1.40;;;17.90;99.90;;;;;;5004784;28;20033;-76
2022/07/08 10:28:37;;;;;;;3.17;1.10;;;17.90;99.90;;;;;;4997840;28;20041;-73
2022/07/08 10:31:24;;;;;;;;;;;18.10;99.90;;;;;;4990255;28;20022;-78
2022/07/08 10:33:50;;;;;;;2.40;1.33;;;18.10;99.90;;;;;;4995678;28;19917;-77
2022/07/08 10:36:25;;;;;;;4.85;1.80;;;18.00;99.90;;;;;;5002200;28;20398;-79
2022/07/08 10:38:50;;;;;;;2.75;1.58;;;17.90;99.90;;;;;;5000004;28;20025;-80
2022/07/08 10:41:19;;;;;;;5.20;1.58;;;17.80;99.90;;;;;;5005780;28;20026;-82
2022/07/08 10:43:57;;;;;;;2.72;1.10;;;17.80;99.90;;;;;;5000518;28;20029;-75
2022/07/08 10:46:26;;;;;;;4.85;1.63;;;17.90;99.90;;;;;;4995763;28;20434;-77
2022/07/08 10:48:57;;;;;;;5.07;1.77;;;17.90;99.90;;;;;;4992468;28;20110;-74
2022/07/08 10:51:24;;;;;;;5.80;1.67;;;18.10;99.90;;;;;;4994170;28;20038;-76
2022/07/08 10:53:56;;;;;;;3.80;1.42;;;18.20;99.90;;;;;;4993029;28;20097;-75
2022/07/08 10:56:48;;;;;;;5.80;2.10;;;18.30;99.90;;;;;;4991645;28;20102;-75
2022/07/08 10:59:17;;;;;;;4.10;1.77;;;18.70;99.90;;;;;;4996352;28;20022;-77
2022/07/08 11:01:55;;;;;;;7.35;2.33;;;18.70;99.90;;;;;;4999902;28;20112;-76
2022/07/08 11:04:37;;;;;;;5.60;1.58;;;18.80;99.90;;;;;;4996119;28;20022;-76
2022/07/08 11:07:23;;;;;;;4.43;1.33;;;18.70;99.90;;;;;;4993548;28;20053;-77
2022/07/08 11:10:07;;;;;;;3.13;1.27;;;18.50;99.90;;;;;;4978129;28;20029;-76
2022/07/08 11:12:37;;;;;;;10.30;2.28;;;18.50;99.90;;;;;;5000442;28;20465;-76
2022/07/08 11:15:21;;;;;;;4.43;1.52;;;18.40;99.90;;;;;;4997523;28;20022;-77
2022/07/08 11:17:48;;;;;;;5.75;1.92;;;18.60;99.90;;;;;;4998695;28;20029;-76
2022/07/08 11:20:18;;;;;;;4.07;1.55;;;18.90;99.90;;;;;;4999219;28;20409;-75
2022/07/08 11:22:45;;;;;;;5.13;1.13;;;19.10;99.90;;;;;;4995547;28;20038;-76
2022/07/08 11:25:16;;;;;;;3.10;1.38;;;19.50;99.90;;;;;;4996539;28;20567;-76
2022/07/08 11:27:42;;;;;;;5.13;1.40;;;19.70;99.90;;;;;;4994343;28;20394;-77
2022/07/08 11:30:13;;;;;;;2.80;1.13;;;20.00;99.90;;;;;;5001638;28;20365;-77
2022/07/08 11:32:39;;;;;;;3.10;1.00;;;20.70;99.90;;;;;;4992254;28;20034;-76
2022/07/08 11:35:08;;;;;;;3.25;0.93;;;22.00;99.90;;;;;;4993997;28;20042;-76
2022/07/08 11:37:41;;;;;;;2.80;0.98;;;22.20;99.90;;;;;;4996267;28;20061;-75
2022/07/08 11:40:11;;;;;;;5.07;1.60;;;22.50;99.90;;;;;;4995743;28;20575;-75
2022/07/08 11:42:40;;;;;;;3.45;1.15;;;22.20;99.90;;;;;;5001098;28;20077;-75
2022/07/08 11:45:09;;;;;;;5.45;1.30;;;22.20;99.90;;;;;;4994868;28;20044;-77
2022/07/08 11:47:35;;;;;;;2.50;1.30;;;21.50;99.90;;;;;;5014833;28;20526;-76
2022/07/08 11:50:02;;;;;;;31.33;13.55;;;21.10;99.90;;;;;;4997890;28;20072;-75
2022/07/08 11:52:28;;;;;;;12.20;4.38;;;20.90;99.90;;;;;;4993291;28;20101;-75
2022/07/08 11:54:55;;;;;;;13.90;3.42;;;20.80;99.90;;;;;;4992557;28;20531;-75
2022/07/08 11:57:21;;;;;;;10.40;3.53;;;20.60;99.90;;;;;;4995661;28;20038;-74
2022/07/08 11:59:48;;;;;;;7.50;2.50;;;20.50;99.90;;;;;;4982272;28;20092;-74
2022/07/08 12:02:24;;;;;;;6.88;1.98;;;20.60;99.90;;;;;;4989439;28;20512;-76
2022/07/08 12:04:51;;;;;;;6.43;1.88;;;21.00;99.90;;;;;;4992837;28;20122;-76
2022/07/08 12:07:21;;;;;;;4.95;1.60;;;21.30;99.90;;;;;;4987962;28;20406;-75
2022/07/08 12:09:57;;;;;;;4.68;1.27;;;21.00;99.90;;;;;;4982461;28;20026;-76
2022/07/08 12:12:41;;;;;;;2.05;1.20;;;20.60;99.90;;;;;;4990234;28;20064;-77
2022/07/08 12:15:14;;;;;;;2.85;1.10;;;20.40;99.90;;;;;;4993308;28;20454;-76
2022/07/08 12:17:40;;;;;;;3.80;1.15;;;21.10;99.90;;;;;;4991318;28;20434;-75
2022/07/08 12:20:06;;;;;;;3.35;1.20;;;21.80;99.90;;;;;;4994671;28;20034;-76
2022/07/08 12:22:46;;;;;;;3.47;1.40;;;22.80;99.90;;;;;;4993974;28;20121;-76
2022/07/08 12:25:14;;;;;;;4.90;1.60;;;23.60;99.90;;;;;;4988275;28;20037;-75
2022/07/08 12:27:40;;;;;;;2.10;1.10;;;24.00;99.90;;;;;;4979858;28;21294;-75
2022/07/08 12:30:07;;;;;;;2.78;1.20;;;24.50;99.90;;;;;;5009817;28;20087;-74
2022/07/08 12:32:51;;;;;;;3.13;1.40;;;24.70;99.70;;;;;;4986050;28;20028;-75
2022/07/08 12:35:17;;;;;;;3.22;1.38;;;24.90;98.40;;;;;;4987478;28;20038;-76
2022/07/08 12:37:43;;;;;;;6.22;1.90;;;25.10;99.00;;;;;;4996948;28;20030;-75
2022/07/08 12:40:17;;;;;;;8.23;1.83;;;25.10;98.10;;;;;;4993657;28;20552;-75
2022/07/08 12:42:58;;;;;;;4.68;1.60;;;24.90;98.30;;;;;;4984449;28;20042;-75
2022/07/08 12:45:28;;;;;;;8.65;1.80;;;24.70;98.40;;;;;;4985323;28;20050;-76
2022/07/08 12:47:53;;;;;;;4.53;1.88;;;24.40;98.20;;;;;;4987408;28;20030;-75